GLO8001 SBFZ-SBJP
Flight info
| Callsign | GLO8001 |
|---|---|
| Flight time | 0h 57m |
| Altitude | 29000 |
| Route | UTMAR UZ70 UGTUN |
| Aircraft | B738/M-V/N |
Departure
| Time | 2026-04-25 21:05 |
|---|---|
| Airport | Pinto Martins International Airport (SBFZ) |
Arrival
| Time | 2026-04-25 22:02 |
|---|---|
| Airport | Presidente Castro Pinto International Airport (SBJP) |
| Time | Latitude | Longitude | Altitude | Speed | Heading |
|---|---|---|---|---|---|
| 2026-04-25 20:48 | -3.77788 | -38.54005 | 84 ft | 0 kts | 198° |
| 2026-04-25 20:50 | -3.77784 | -38.54003 | 84 ft | 3 kts | 198° |
| 2026-04-25 20:50 | -3.77766 | -38.53997 | 85 ft | 3 kts | 198° |
| 2026-04-25 20:50 | -3.77748 | -38.53991 | 89 ft | 3 kts | 198° |
| 2026-04-25 20:51 | -3.77730 | -38.53985 | 88 ft | 3 kts | 198° |
| 2026-04-25 20:51 | -3.77717 | -38.53981 | 86 ft | 0 kts | 198° |
| 2026-04-25 20:55 | -3.77721 | -38.53982 | 87 ft | 1 kts | 198° |
| 2026-04-25 20:55 | -3.77715 | -38.53980 | 86 ft | 2 kts | 198° |
| 2026-04-25 20:55 | -3.77714 | -38.53980 | 86 ft | 0 kts | 198° |
| 2026-04-25 20:55 | -3.77711 | -38.53979 | 85 ft | 2 kts | 198° |
| 2026-04-25 20:56 | -3.77719 | -38.53982 | 87 ft | 3 kts | 198° |
| 2026-04-25 20:56 | -3.77733 | -38.53986 | 88 ft | 2 kts | 198° |
| 2026-04-25 20:56 | -3.77745 | -38.53990 | 89 ft | 0 kts | 198° |
| 2026-04-25 20:56 | -3.77748 | -38.53995 | 89 ft | 1 kts | 251° |
| 2026-04-25 20:57 | -3.77742 | -38.54021 | 84 ft | 7 kts | 279° |
| 2026-04-25 20:57 | -3.77713 | -38.54072 | 86 ft | 10 kts | 335° |
| 2026-04-25 20:57 | -3.77668 | -38.54112 | 89 ft | 10 kts | 274° |
| 2026-04-25 20:57 | -3.77654 | -38.54177 | 87 ft | 9 kts | 284° |
| 2026-04-25 20:58 | -3.77638 | -38.54239 | 88 ft | 9 kts | 284° |
| 2026-04-25 20:58 | -3.77622 | -38.54299 | 90 ft | 9 kts | 285° |
| 2026-04-25 20:58 | -3.77601 | -38.54355 | 88 ft | 9 kts | 308° |
| 2026-04-25 20:58 | -3.77547 | -38.54378 | 88 ft | 8 kts | 347° |
| 2026-04-25 20:59 | -3.77497 | -38.54403 | 87 ft | 8 kts | 303° |
| 2026-04-25 20:59 | -3.77477 | -38.54457 | 91 ft | 8 kts | 292° |
| 2026-04-25 20:59 | -3.77445 | -38.54502 | 88 ft | 8 kts | 330° |
| 2026-04-25 20:59 | -3.77417 | -38.54508 | 89 ft | 0 kts | 356° |
| 2026-04-25 21:01 | -3.77416 | -38.54508 | 89 ft | 0 kts | 356° |
| 2026-04-25 21:02 | -3.77406 | -38.54509 | 89 ft | 3 kts | 360° |
| 2026-04-25 21:02 | -3.77382 | -38.54504 | 91 ft | 5 kts | 13° |
| 2026-04-25 21:02 | -3.77340 | -38.54492 | 92 ft | 8 kts | 19° |
| 2026-04-25 21:02 | -3.77313 | -38.54451 | 90 ft | 8 kts | 90° |
| 2026-04-25 21:03 | -3.77315 | -38.54436 | 90 ft | 0 kts | 103° |
| 2026-04-25 21:04 | -3.77322 | -38.54410 | 92 ft | 24 kts | 104° |
| 2026-04-25 21:04 | -3.77441 | -38.53964 | 89 ft | 107 kts | 105° |
| 2026-04-25 21:04 | -3.77693 | -38.53023 | 108 ft | 172 kts | 104° |
| 2026-04-25 21:04 | -3.77983 | -38.51758 | 603 ft | 204 kts | 100° |
| 2026-04-25 21:05 | -3.78350 | -38.50257 | 893 ft | 237 kts | 107° |
| 2026-04-25 21:05 | -3.78892 | -38.48646 | 1385 ft | 250 kts | 106° |
| 2026-04-25 21:05 | -3.79394 | -38.46970 | 1886 ft | 255 kts | 105° |
| 2026-04-25 21:05 | -3.80031 | -38.45305 | 2512 ft | 259 kts | 125° |
| 2026-04-25 21:06 | -3.81434 | -38.44210 | 3279 ft | 259 kts | 160° |
| 2026-04-25 21:06 | -3.83172 | -38.43738 | 4174 ft | 261 kts | 168° |
| 2026-04-25 21:06 | -3.84965 | -38.43400 | 4963 ft | 264 kts | 169° |
| 2026-04-25 21:06 | -3.86171 | -38.43184 | 5447 ft | 267 kts | 169° |
| 2026-04-25 21:07 | -3.88609 | -38.42735 | 5916 ft | 269 kts | 168° |
| 2026-04-25 21:07 | -3.90462 | -38.42378 | 5931 ft | 272 kts | 168° |
| 2026-04-25 21:07 | -3.92317 | -38.42013 | 5931 ft | 270 kts | 168° |
| 2026-04-25 21:07 | -3.94145 | -38.41650 | 5944 ft | 267 kts | 168° |
| 2026-04-25 21:08 | -3.95970 | -38.41290 | 5973 ft | 268 kts | 168° |
| 2026-04-25 21:08 | -3.97815 | -38.40931 | 6420 ft | 273 kts | 168° |
| 2026-04-25 21:08 | -3.99689 | -38.40569 | 7146 ft | 274 kts | 168° |
| 2026-04-25 21:08 | -4.01567 | -38.40206 | 7924 ft | 276 kts | 168° |
| 2026-04-25 21:09 | -4.05393 | -38.39465 | 9337 ft | 284 kts | 168° |
| 2026-04-25 21:09 | -4.07338 | -38.39088 | 9954 ft | 290 kts | 168° |
| 2026-04-25 21:09 | -4.09353 | -38.38698 | 10410 ft | 304 kts | 168° |
| 2026-04-25 21:10 | -4.11504 | -38.38280 | 10572 ft | 326 kts | 168° |
| 2026-04-25 21:10 | -4.13790 | -38.37836 | 10814 ft | 343 kts | 168° |
| 2026-04-25 21:10 | -4.16154 | -38.37378 | 11377 ft | 347 kts | 168° |
| 2026-04-25 21:10 | -4.18526 | -38.36919 | 12101 ft | 347 kts | 168° |
| 2026-04-25 21:11 | -4.20916 | -38.36456 | 12689 ft | 352 kts | 168° |
| 2026-04-25 21:11 | -4.23338 | -38.35987 | 13292 ft | 356 kts | 168° |
| 2026-04-25 21:11 | -4.25782 | -38.35513 | 13904 ft | 359 kts | 168° |
| 2026-04-25 21:11 | -4.28247 | -38.35036 | 14437 ft | 362 kts | 168° |
| 2026-04-25 21:12 | -4.30735 | -38.34553 | 14950 ft | 366 kts | 168° |
| 2026-04-25 21:12 | -4.33245 | -38.34066 | 15473 ft | 369 kts | 168° |
| 2026-04-25 21:12 | -4.35781 | -38.33574 | 15985 ft | 373 kts | 168° |
| 2026-04-25 21:12 | -4.37471 | -38.33246 | 16318 ft | 375 kts | 168° |
| 2026-04-25 21:13 | -4.40895 | -38.32582 | 16972 ft | 380 kts | 168° |
| 2026-04-25 21:13 | -4.43540 | -38.32069 | 17482 ft | 383 kts | 168° |
| 2026-04-25 21:13 | -4.46170 | -38.31559 | 17966 ft | 387 kts | 168° |
| 2026-04-25 21:13 | -4.48785 | -38.31051 | 18406 ft | 390 kts | 168° |
| 2026-04-25 21:14 | -4.51461 | -38.30523 | 18827 ft | 393 kts | 166° |
| 2026-04-25 21:14 | -4.53984 | -38.29505 | 19207 ft | 394 kts | 146° |
| 2026-04-25 21:14 | -4.56153 | -38.27834 | 19689 ft | 394 kts | 140° |
| 2026-04-25 21:14 | -4.58267 | -38.26079 | 20112 ft | 396 kts | 139° |
| 2026-04-25 21:15 | -4.60388 | -38.24299 | 20500 ft | 399 kts | 139° |
| 2026-04-25 21:15 | -4.62524 | -38.22508 | 20899 ft | 401 kts | 139° |
| 2026-04-25 21:15 | -4.64674 | -38.20713 | 21307 ft | 403 kts | 140° |
| 2026-04-25 21:15 | -4.66844 | -38.18913 | 21706 ft | 406 kts | 140° |
| 2026-04-25 21:16 | -4.69025 | -38.17110 | 22101 ft | 407 kts | 140° |
| 2026-04-25 21:16 | -4.71223 | -38.15298 | 22492 ft | 410 kts | 140° |
| 2026-04-25 21:16 | -4.73430 | -38.13481 | 22845 ft | 412 kts | 140° |
| 2026-04-25 21:16 | -4.75652 | -38.11654 | 23205 ft | 414 kts | 140° |
| 2026-04-25 21:17 | -4.77887 | -38.09816 | 23553 ft | 417 kts | 140° |
| 2026-04-25 21:17 | -4.80104 | -38.07993 | 23837 ft | 419 kts | 140° |
| 2026-04-25 21:17 | -4.82363 | -38.06136 | 24119 ft | 421 kts | 140° |
| 2026-04-25 21:17 | -4.84632 | -38.04269 | 24408 ft | 423 kts | 140° |
| 2026-04-25 21:18 | -4.86909 | -38.02396 | 24712 ft | 424 kts | 140° |
| 2026-04-25 21:18 | -4.89199 | -38.00512 | 25083 ft | 423 kts | 140° |
| 2026-04-25 21:18 | -4.91471 | -37.98643 | 25507 ft | 421 kts | 140° |
| 2026-04-25 21:18 | -4.93730 | -37.96784 | 25931 ft | 420 kts | 140° |
| 2026-04-25 21:19 | -4.95960 | -37.94949 | 26312 ft | 419 kts | 140° |
| 2026-04-25 21:19 | -4.98217 | -37.93092 | 26648 ft | 420 kts | 140° |
| 2026-04-25 21:19 | -5.00482 | -37.91227 | 27024 ft | 420 kts | 140° |
| 2026-04-25 21:19 | -5.02736 | -37.89371 | 27450 ft | 418 kts | 140° |
| 2026-04-25 21:20 | -5.04991 | -37.87515 | 27875 ft | 417 kts | 140° |
| 2026-04-25 21:20 | -5.06477 | -37.86292 | 28134 ft | 417 kts | 140° |
| 2026-04-25 21:20 | -5.09475 | -37.83823 | 28656 ft | 416 kts | 140° |
| 2026-04-25 21:20 | -5.11683 | -37.82005 | 28938 ft | 417 kts | 140° |
| 2026-04-25 21:21 | -5.16181 | -37.78300 | 28926 ft | 416 kts | 141° |
| 2026-04-25 21:21 | -5.20620 | -37.74644 | 28931 ft | 411 kts | 141° |
| 2026-04-25 21:22 | -5.25062 | -37.70984 | 28937 ft | 414 kts | 141° |
| 2026-04-25 21:22 | -5.29517 | -37.67312 | 28941 ft | 415 kts | 141° |
| 2026-04-25 21:23 | -5.33964 | -37.63647 | 28936 ft | 416 kts | 141° |
| 2026-04-25 21:23 | -5.38439 | -37.59958 | 28922 ft | 416 kts | 141° |
| 2026-04-25 21:24 | -5.42911 | -37.56270 | 28926 ft | 414 kts | 141° |
| 2026-04-25 21:24 | -5.47353 | -37.52607 | 28928 ft | 412 kts | 141° |
| 2026-04-25 21:25 | -5.51778 | -37.48956 | 28923 ft | 410 kts | 141° |
| 2026-04-25 21:25 | -5.56150 | -37.45349 | 28921 ft | 409 kts | 141° |
| 2026-04-25 21:26 | -5.60538 | -37.41727 | 28931 ft | 408 kts | 141° |
| 2026-04-25 21:26 | -5.64932 | -37.38101 | 28932 ft | 409 kts | 141° |
| 2026-04-25 21:27 | -5.69337 | -37.34463 | 28932 ft | 410 kts | 141° |
| 2026-04-25 21:27 | -5.73757 | -37.30813 | 28933 ft | 412 kts | 141° |
| 2026-04-25 21:28 | -5.78186 | -37.27156 | 28928 ft | 413 kts | 140° |
| 2026-04-25 21:28 | -5.82623 | -37.23492 | 28933 ft | 413 kts | 140° |
| 2026-04-25 21:29 | -5.87057 | -37.19829 | 28929 ft | 412 kts | 140° |
| 2026-04-25 21:29 | -5.91473 | -37.16179 | 28928 ft | 410 kts | 140° |
| 2026-04-25 21:30 | -5.95870 | -37.12544 | 28937 ft | 409 kts | 140° |
| 2026-04-25 21:30 | -5.99188 | -37.09800 | 28940 ft | 408 kts | 140° |
| 2026-04-25 21:31 | -6.04241 | -37.05622 | 28935 ft | 407 kts | 140° |
| 2026-04-25 21:31 | -6.08617 | -37.02001 | 28949 ft | 407 kts | 140° |
| 2026-04-25 21:32 | -6.12993 | -36.98381 | 28940 ft | 407 kts | 140° |
| 2026-04-25 21:32 | -6.17371 | -36.94757 | 28951 ft | 408 kts | 140° |
| 2026-04-25 21:33 | -6.21755 | -36.91129 | 28951 ft | 408 kts | 140° |
| 2026-04-25 21:33 | -6.26138 | -36.87499 | 28948 ft | 409 kts | 140° |
| 2026-04-25 21:34 | -6.30502 | -36.83885 | 28954 ft | 409 kts | 140° |
| 2026-04-25 21:34 | -6.34893 | -36.80247 | 28954 ft | 409 kts | 140° |
| 2026-04-25 21:35 | -6.39284 | -36.76608 | 28950 ft | 409 kts | 140° |
| 2026-04-25 21:35 | -6.43678 | -36.72966 | 28948 ft | 409 kts | 140° |
| 2026-04-25 21:36 | -6.45887 | -36.71135 | 28566 ft | 412 kts | 140° |
| 2026-04-25 21:36 | -6.48086 | -36.69312 | 28201 ft | 408 kts | 140° |
| 2026-04-25 21:36 | -6.50266 | -36.67506 | 27818 ft | 404 kts | 140° |
| 2026-04-25 21:36 | -6.52425 | -36.65719 | 27451 ft | 401 kts | 139° |
| 2026-04-25 21:37 | -6.54571 | -36.63942 | 27085 ft | 397 kts | 139° |
| 2026-04-25 21:37 | -6.55290 | -36.63347 | 26963 ft | 396 kts | 139° |
| 2026-04-25 21:37 | -6.58803 | -36.60437 | 26372 ft | 391 kts | 139° |
| 2026-04-25 21:37 | -6.60193 | -36.59286 | 26138 ft | 389 kts | 139° |
| 2026-04-25 21:38 | -6.62273 | -36.57563 | 25789 ft | 386 kts | 139° |
| 2026-04-25 21:38 | -6.64343 | -36.55846 | 25445 ft | 384 kts | 139° |
| 2026-04-25 21:38 | -6.66391 | -36.54147 | 25111 ft | 381 kts | 139° |
| 2026-04-25 21:38 | -6.68431 | -36.52454 | 24775 ft | 378 kts | 139° |
| 2026-04-25 21:39 | -6.71114 | -36.50226 | 24331 ft | 375 kts | 139° |
| 2026-04-25 21:39 | -6.72472 | -36.49098 | 24112 ft | 374 kts | 139° |
| 2026-04-25 21:39 | -6.75120 | -36.46898 | 23691 ft | 371 kts | 138° |
| 2026-04-25 21:39 | -6.76435 | -36.45806 | 23466 ft | 369 kts | 138° |
| 2026-04-25 21:40 | -6.78410 | -36.44165 | 23084 ft | 367 kts | 138° |
| 2026-04-25 21:40 | -6.80376 | -36.42530 | 22703 ft | 365 kts | 139° |
| 2026-04-25 21:40 | -6.82329 | -36.40907 | 22324 ft | 363 kts | 139° |
| 2026-04-25 21:40 | -6.84276 | -36.39290 | 21952 ft | 362 kts | 139° |
| 2026-04-25 21:41 | -6.86210 | -36.37683 | 21585 ft | 360 kts | 139° |
| 2026-04-25 21:41 | -6.87945 | -36.35899 | 21189 ft | 356 kts | 122° |
| 2026-04-25 21:41 | -6.89033 | -36.33683 | 20855 ft | 353 kts | 107° |
| 2026-04-25 21:41 | -6.89491 | -36.31268 | 20502 ft | 351 kts | 95° |
| 2026-04-25 21:42 | -6.89665 | -36.28827 | 20161 ft | 349 kts | 94° |
| 2026-04-25 21:42 | -6.89790 | -36.26389 | 19814 ft | 349 kts | 93° |
| 2026-04-25 21:42 | -6.89904 | -36.23954 | 19475 ft | 348 kts | 93° |
| 2026-04-25 21:42 | -6.90022 | -36.21531 | 19143 ft | 347 kts | 93° |
| 2026-04-25 21:43 | -6.90147 | -36.19103 | 18800 ft | 346 kts | 93° |
| 2026-04-25 21:43 | -6.90278 | -36.16689 | 18469 ft | 345 kts | 93° |
| 2026-04-25 21:43 | -6.90412 | -36.14279 | 18123 ft | 345 kts | 94° |
| 2026-04-25 21:43 | -6.90549 | -36.11876 | 17741 ft | 344 kts | 94° |
| 2026-04-25 21:44 | -6.90688 | -36.09475 | 17364 ft | 343 kts | 94° |
| 2026-04-25 21:44 | -6.90827 | -36.07080 | 16995 ft | 342 kts | 94° |
| 2026-04-25 21:44 | -6.91104 | -36.02331 | 16270 ft | 341 kts | 94° |
| 2026-04-25 21:45 | -6.91244 | -35.99954 | 15910 ft | 340 kts | 94° |
| 2026-04-25 21:45 | -6.91337 | -35.98351 | 15669 ft | 339 kts | 94° |
| 2026-04-25 21:45 | -6.91522 | -35.95185 | 15205 ft | 338 kts | 94° |
| 2026-04-25 21:45 | -6.91658 | -35.92856 | 14919 ft | 336 kts | 94° |
| 2026-04-25 21:46 | -6.91794 | -35.90527 | 14689 ft | 331 kts | 94° |
| 2026-04-25 21:46 | -6.91928 | -35.88215 | 14452 ft | 327 kts | 94° |
| 2026-04-25 21:46 | -6.92061 | -35.85943 | 14223 ft | 324 kts | 94° |
| 2026-04-25 21:46 | -6.92191 | -35.83693 | 13991 ft | 320 kts | 94° |
| 2026-04-25 21:47 | -6.92321 | -35.81471 | 13756 ft | 317 kts | 94° |
| 2026-04-25 21:47 | -6.92449 | -35.79265 | 13497 ft | 313 kts | 94° |
| 2026-04-25 21:47 | -6.92575 | -35.77086 | 13245 ft | 310 kts | 94° |
| 2026-04-25 21:47 | -6.92701 | -35.74924 | 12988 ft | 308 kts | 94° |
| 2026-04-25 21:48 | -6.92825 | -35.72785 | 12737 ft | 305 kts | 94° |
| 2026-04-25 21:48 | -6.92946 | -35.70690 | 12493 ft | 302 kts | 95° |
| 2026-04-25 21:48 | -6.93070 | -35.68558 | 12235 ft | 300 kts | 95° |
| 2026-04-25 21:48 | -6.93189 | -35.66496 | 11996 ft | 298 kts | 95° |
| 2026-04-25 21:49 | -6.93308 | -35.64430 | 11745 ft | 294 kts | 94° |
| 2026-04-25 21:49 | -6.93426 | -35.62398 | 11492 ft | 288 kts | 95° |
| 2026-04-25 21:49 | -6.93542 | -35.60378 | 11016 ft | 291 kts | 95° |
| 2026-04-25 21:49 | -6.93661 | -35.58334 | 10559 ft | 293 kts | 95° |
| 2026-04-25 21:50 | -6.93780 | -35.56279 | 10117 ft | 295 kts | 95° |
| 2026-04-25 21:50 | -6.93899 | -35.54208 | 9620 ft | 297 kts | 95° |
| 2026-04-25 21:50 | -6.94020 | -35.52115 | 9123 ft | 299 kts | 95° |
| 2026-04-25 21:50 | -6.94099 | -35.50731 | 8824 ft | 298 kts | 95° |
| 2026-04-25 21:51 | -6.94257 | -35.47965 | 8341 ft | 294 kts | 95° |
| 2026-04-25 21:51 | -6.94374 | -35.45920 | 7972 ft | 291 kts | 95° |
| 2026-04-25 21:51 | -6.94490 | -35.43902 | 7601 ft | 286 kts | 95° |
| 2026-04-25 21:51 | -6.94602 | -35.41941 | 7247 ft | 282 kts | 95° |
| 2026-04-25 21:52 | -6.94713 | -35.39993 | 6998 ft | 274 kts | 95° |
| 2026-04-25 21:52 | -6.94821 | -35.38100 | 6750 ft | 267 kts | 95° |
| 2026-04-25 21:52 | -6.94926 | -35.36262 | 6510 ft | 260 kts | 95° |
| 2026-04-25 21:52 | -6.95028 | -35.34467 | 6258 ft | 254 kts | 96° |
| 2026-04-25 21:53 | -6.95128 | -35.32715 | 6006 ft | 248 kts | 96° |
| 2026-04-25 21:53 | -6.95226 | -35.31003 | 5750 ft | 242 kts | 96° |
| 2026-04-25 21:53 | -6.95322 | -35.29330 | 5502 ft | 238 kts | 96° |
| 2026-04-25 21:53 | -6.95417 | -35.27669 | 5263 ft | 237 kts | 96° |
| 2026-04-25 21:54 | -6.95512 | -35.26010 | 5039 ft | 237 kts | 96° |
| 2026-04-25 21:54 | -6.95607 | -35.24350 | 4805 ft | 238 kts | 96° |
| 2026-04-25 21:54 | -6.95702 | -35.22694 | 4607 ft | 236 kts | 96° |
| 2026-04-25 21:54 | -6.95795 | -35.21052 | 4429 ft | 234 kts | 96° |
| 2026-04-25 21:55 | -6.95888 | -35.19418 | 4207 ft | 233 kts | 96° |
| 2026-04-25 21:55 | -6.95979 | -35.17813 | 4017 ft | 231 kts | 96° |
| 2026-04-25 21:55 | -6.96069 | -35.16218 | 3860 ft | 224 kts | 96° |
| 2026-04-25 21:55 | -6.96156 | -35.14677 | 3681 ft | 217 kts | 98° |
| 2026-04-25 21:56 | -6.96596 | -35.13291 | 3442 ft | 205 kts | 129° |
| 2026-04-25 21:56 | -6.97202 | -35.12590 | 3353 ft | 196 kts | 135° |
| 2026-04-25 21:56 | -6.98463 | -35.11331 | 3147 ft | 184 kts | 137° |
| 2026-04-25 21:56 | -6.99357 | -35.10451 | 3018 ft | 178 kts | 137° |
| 2026-04-25 21:57 | -7.00225 | -35.09594 | 2901 ft | 177 kts | 137° |
| 2026-04-25 21:57 | -7.01100 | -35.08729 | 2775 ft | 175 kts | 136° |
| 2026-04-25 21:57 | -7.01966 | -35.07871 | 2657 ft | 174 kts | 136° |
| 2026-04-25 21:57 | -7.02822 | -35.07022 | 2521 ft | 171 kts | 136° |
| 2026-04-25 21:58 | -7.03669 | -35.06183 | 2388 ft | 170 kts | 136° |
| 2026-04-25 21:58 | -7.04520 | -35.05337 | 2289 ft | 172 kts | 136° |
| 2026-04-25 21:58 | -7.05377 | -35.04486 | 2169 ft | 173 kts | 136° |
| 2026-04-25 21:58 | -7.06227 | -35.03642 | 2005 ft | 166 kts | 136° |
| 2026-04-25 21:59 | -7.06999 | -35.02874 | 1813 ft | 148 kts | 137° |
| 2026-04-25 21:59 | -7.07689 | -35.02187 | 1649 ft | 132 kts | 137° |
| 2026-04-25 21:59 | -7.08350 | -35.01532 | 1406 ft | 136 kts | 136° |
| 2026-04-25 22:00 | -7.09695 | -35.00193 | 1109 ft | 137 kts | 136° |
| 2026-04-25 22:00 | -7.10375 | -34.99518 | 952 ft | 136 kts | 135° |
| 2026-04-25 22:00 | -7.11056 | -34.98841 | 853 ft | 138 kts | 137° |
| 2026-04-25 22:00 | -7.11749 | -34.98153 | 808 ft | 138 kts | 137° |
| 2026-04-25 22:01 | -7.12428 | -34.97487 | 640 ft | 137 kts | 137° |
| 2026-04-25 22:01 | -7.13125 | -34.96823 | 484 ft | 138 kts | 133° |
| 2026-04-25 22:01 | -7.13788 | -34.96117 | 314 ft | 137 kts | 135° |
| 2026-04-25 22:01 | -7.14229 | -34.95688 | 228 ft | 126 kts | 133° |
| 2026-04-25 22:02 | -7.14748 | -34.95174 | 216 ft | 34 kts | 137° |
| 2026-04-25 22:02 | -7.14792 | -34.95082 | 223 ft | 13 kts | 59° |
| 2026-04-25 22:02 | -7.14730 | -34.95018 | 215 ft | 12 kts | 51° |
| 2026-04-25 22:02 | -7.14747 | -34.94951 | 215 ft | 11 kts | 152° |
| 2026-04-25 22:03 | -7.14775 | -34.94911 | 215 ft | 1 kts | 79° |
| 2026-04-25 22:03 | -7.14776 | -34.94902 | 220 ft | 1 kts | 96° |
| 2026-04-25 22:03 | -7.14774 | -34.94891 | 215 ft | 3 kts | 78° |
| 2026-04-25 22:03 | -7.14760 | -34.94869 | 217 ft | 5 kts | 41° |
| 2026-04-25 22:04 | -7.14729 | -34.94877 | 215 ft | 5 kts | 339° |
| 2026-04-25 22:04 | -7.14722 | -34.94879 | 221 ft | 0 kts | 341° |